Weather at El Yarual Airport [CLOSED]

Public forecast

Using degrees Celsius for public forecast. Weather courtesy of forecast.io.

Closest aviation weather report (METAR) to El Yarual Airport

Closest report is Jardines Del Rey Airport, 27.2 nm (50.5 km) NNW. Retrieved 2021/07/26 22:50 UTC (1 hour ago):

MUCC 262250Z 19005KT 150V240 9000 SCT020 31/24 Q1015

Closest aviation forecast (TAF) to El Yarual Airport

Closest forecast is Jardines Del Rey Airport, 27.2 nm (50.5 km) NNW. Retrieved 2021/07/26 18:03 UTC (6 hours ago):

TAF MUCC 261700Z 2618/2718 VRB05KT 9000 SCT020